createdAt,value
2019-06-26T00:00:50.338Z,47.27
2019-06-26T00:03:38.869Z,42.25
2019-06-26T00:06:26.712Z,38.23
2019-06-26T00:09:14.876Z,39.23
2019-06-26T00:12:02.672Z,40.00
2019-06-26T00:14:52.092Z,38.83
2019-06-26T00:17:40.058Z,40.33
2019-06-26T00:20:28.342Z,39.83
2019-06-26T00:23:16.645Z,37.78
2019-06-26T00:26:05.034Z,38.73
2019-06-26T00:28:53.029Z,43.05
2019-06-26T00:31:41.881Z,56.63
2019-06-26T00:34:30.479Z,51.90
2019-06-26T00:37:18.468Z,41.60
2019-06-26T00:40:07.827Z,47.48
2019-06-26T00:42:56.248Z,49.03
2019-06-26T00:45:44.541Z,42.27
2019-06-26T00:48:32.749Z,52.85
2019-06-26T00:51:21.075Z,52.93
2019-06-26T00:54:09.547Z,51.25
2019-06-26T00:56:58.040Z,41.73
2019-06-26T00:59:46.202Z,43.13
2019-06-26T01:02:34.209Z,43.80
2019-06-26T01:05:22.084Z,41.92
2019-06-26T01:08:10.200Z,41.55
2019-06-26T01:10:58.421Z,44.20
2019-06-26T01:13:57.582Z,38.08
2019-06-26T01:16:36.205Z,44.03
2019-06-26T01:19:24.888Z,51.18
2019-06-26T01:22:13.205Z,44.65
2019-06-26T01:25:01.090Z,37.98
2019-06-26T01:27:49.433Z,36.17
2019-06-26T01:30:37.857Z,39.25
2019-06-26T01:33:26.513Z,33.48
2019-06-26T01:36:14.538Z,32.03
2019-06-26T01:39:03.053Z,35.78
2019-06-26T01:41:51.758Z,35.50
2019-06-26T01:44:39.721Z,40.48
2019-06-26T01:47:27.527Z,29.52
2019-06-26T01:50:16.874Z,35.30
2019-06-26T01:53:06.070Z,33.92
2019-06-26T01:55:53.873Z,38.63
2019-06-26T01:58:42.157Z,38.45
2019-06-26T02:01:29.993Z,44.25
2019-06-26T02:04:18.547Z,50.15
2019-06-26T02:07:06.530Z,28.92
2019-06-26T02:09:55.298Z,46.48
2019-06-26T02:12:43.422Z,46.18
2019-06-26T02:15:31.656Z,43.17
2019-06-26T02:18:33.463Z,43.55
2019-06-26T02:21:21.267Z,27.62
2019-06-26T02:24:09.365Z,29.65
2019-06-26T02:26:57.798Z,27.52
2019-06-26T02:29:45.963Z,36.95
2019-06-26T02:32:34.556Z,37.15
2019-06-26T02:35:22.471Z,37.55
2019-06-26T02:38:10.782Z,35.70
2019-06-26T02:40:58.989Z,27.73
2019-06-26T02:43:47.527Z,31.85
2019-06-26T02:46:35.764Z,31.65
2019-06-26T02:49:23.862Z,26.93
2019-06-26T02:52:12.357Z,25.35
2019-06-26T02:55:01.019Z,26.05
2019-06-26T02:57:49.065Z,24.43
2019-06-26T03:00:37.068Z,27.22
2019-06-26T03:03:25.025Z,21.57
2019-06-26T03:06:13.944Z,32.35
2019-06-26T03:09:02.120Z,25.37
2019-06-26T03:11:50.449Z,31.57
2019-06-26T03:14:38.862Z,24.07
2019-06-26T03:17:26.632Z,22.65
2019-06-26T03:20:16.704Z,28.00
2019-06-26T03:23:05.574Z,22.22
2019-06-26T03:25:53.412Z,25.12
2019-06-26T03:28:41.314Z,16.12
2019-06-26T03:31:29.381Z,19.92
2019-06-26T03:34:17.285Z,23.45
2019-06-26T03:37:06.880Z,19.90
2019-06-26T03:39:54.902Z,21.65
2019-06-26T03:42:43.376Z,19.92
2019-06-26T03:45:32.149Z,20.57
2019-06-26T03:48:20.552Z,16.30
2019-06-26T03:51:08.309Z,17.30
2019-06-26T03:53:55.971Z,19.90
2019-06-26T03:56:44.462Z,20.27
2019-06-26T03:59:32.764Z,22.32
2019-06-26T04:02:20.547Z,17.65
2019-06-26T04:05:29.579Z,17.10
2019-06-26T04:08:17.322Z,22.62
2019-06-26T04:11:05.494Z,23.85
2019-06-26T04:13:53.361Z,16.00
2019-06-26T04:16:43.543Z,13.38
2019-06-26T04:19:31.303Z,17.82
2019-06-26T04:22:19.346Z,19.87
2019-06-26T04:25:08.115Z,17.02
2019-06-26T04:27:56.318Z,19.17
2019-06-26T04:30:44.162Z,17.62
2019-06-26T04:33:32.109Z,19.70
2019-06-26T04:36:20.214Z,16.30
2019-06-26T04:39:08.070Z,14.80
2019-06-26T04:41:55.753Z,14.25
2019-06-26T04:44:44.003Z,12.20
2019-06-26T04:47:32.275Z,14.93
2019-06-26T04:50:21.044Z,14.43
2019-06-26T04:53:09.709Z,14.68
2019-06-26T04:55:59.682Z,15.80
2019-06-26T04:58:47.274Z,16.82
2019-06-26T05:01:34.982Z,16.48
2019-06-26T05:04:23.425Z,13.15
2019-06-26T05:07:11.158Z,14.00
2019-06-26T05:09:59.717Z,15.68
2019-06-26T05:12:47.869Z,15.83
2019-06-26T05:15:35.825Z,13.93
2019-06-26T05:18:24.092Z,11.65
2019-06-26T05:21:12.131Z,15.93
2019-06-26T05:24:00.374Z,12.63
2019-06-26T05:26:48.228Z,15.63
2019-06-26T05:29:36.315Z,17.42
2019-06-26T05:32:24.901Z,17.23
2019-06-26T05:35:13.582Z,14.50
2019-06-26T05:38:02.081Z,15.32
2019-06-26T05:40:50.183Z,13.78
2019-06-26T05:43:38.481Z,15.83
2019-06-26T05:46:30.929Z,14.13
2019-06-26T05:49:16.018Z,11.12
2019-06-26T05:52:03.924Z,14.15
2019-06-26T05:54:54.122Z,13.10
2019-06-26T05:57:42.355Z,13.08
2019-06-26T06:00:30.100Z,11.60
2019-06-26T06:03:18.267Z,10.90
2019-06-26T06:06:06.866Z,12.63
2019-06-26T06:08:54.541Z,10.58
2019-06-26T06:11:42.495Z,10.50
2019-06-26T06:14:30.661Z,9.25
2019-06-26T06:17:18.765Z,10.20
2019-06-26T06:20:08.396Z,12.78
2019-06-26T06:22:56.583Z,11.30
2019-06-26T06:25:44.378Z,11.83
2019-06-26T06:28:32.868Z,15.83
2019-06-26T06:31:21.410Z,11.48
2019-06-26T06:34:09.419Z,12.65
2019-06-26T06:36:57.663Z,11.28
2019-06-26T06:39:45.755Z,10.23
2019-06-26T06:42:33.605Z,10.85
2019-06-26T06:45:22.092Z,10.68
2019-06-26T06:48:09.885Z,11.53
2019-06-26T06:50:58.544Z,9.58
2019-06-26T06:53:47.088Z,11.88
2019-06-26T06:56:35.755Z,9.80
2019-06-26T06:59:24.880Z,8.95
2019-06-26T07:02:12.763Z,8.60
2019-06-26T07:05:00.869Z,9.38
2019-06-26T07:07:49.404Z,10.13
2019-06-26T07:10:37.701Z,8.68
2019-06-26T07:13:25.890Z,9.80
2019-06-26T07:16:13.678Z,9.90
2019-06-26T07:19:01.992Z,10.50
2019-06-26T07:21:49.871Z,10.88
2019-06-26T07:24:37.963Z,10.10
2019-06-26T07:27:25.935Z,10.28
2019-06-26T07:30:14.247Z,11.22
2019-06-26T07:33:03.024Z,8.15
2019-06-26T07:35:51.426Z,8.75
2019-06-26T07:38:39.615Z,9.15
2019-06-26T07:41:27.717Z,9.10
2019-06-26T07:44:17.061Z,9.08
2019-06-26T07:47:12.702Z,8.15
2019-06-26T07:49:55.302Z,9.88
2019-06-26T07:52:43.746Z,10.30
2019-06-26T07:55:31.302Z,9.68
2019-06-26T07:58:19.740Z,7.33
2019-06-26T08:01:08.037Z,7.85
2019-06-26T08:03:56.091Z,10.40
2019-06-26T08:06:43.757Z,8.65
2019-06-26T08:09:31.983Z,8.75
2019-06-26T08:12:19.658Z,7.65
2019-06-26T08:15:08.507Z,8.08
2019-06-26T08:18:00.865Z,9.55
2019-06-26T08:21:00.702Z,9.58
2019-06-26T08:23:37.139Z,9.08
2019-06-26T08:26:25.874Z,10.60
2019-06-26T08:29:13.635Z,7.70
2019-06-26T08:32:01.709Z,6.90
2019-06-26T08:34:49.537Z,11.22
2019-06-26T08:37:38.249Z,8.10
2019-06-26T08:40:27.504Z,7.60
2019-06-26T08:43:15.504Z,8.03
2019-06-26T08:46:03.409Z,7.70
2019-06-26T08:48:53.163Z,7.62
2019-06-26T08:51:41.419Z,9.10
2019-06-26T08:54:29.745Z,8.68
2019-06-26T08:57:17.926Z,8.73
2019-06-26T09:00:08.381Z,7.92
2019-06-26T09:02:56.373Z,7.60
2019-06-26T09:05:48.533Z,8.60
2019-06-26T09:08:33.553Z,11.65
2019-06-26T09:11:22.102Z,10.10
2019-06-26T09:14:09.977Z,10.78
2019-06-26T09:16:58.984Z,10.93
2019-06-26T09:19:47.265Z,8.95
2019-06-26T09:22:36.389Z,9.78
2019-06-26T09:25:24.820Z,12.35
2019-06-26T09:28:12.726Z,9.75
2019-06-26T09:31:01.070Z,8.78
2019-06-26T09:33:50.655Z,11.40
2019-06-26T09:36:39.162Z,12.25
2019-06-26T09:39:27.418Z,9.35
2019-06-26T09:42:19.381Z,11.78
2019-06-26T09:45:09.641Z,11.78
2019-06-26T09:47:57.799Z,12.00
2019-06-26T09:50:47.593Z,9.93
2019-06-26T09:53:46.663Z,9.93
2019-06-26T09:56:25.002Z,12.25
2019-06-26T09:59:12.802Z,16.40
2019-06-26T10:02:00.632Z,13.85
2019-06-26T10:04:48.812Z,10.40
2019-06-26T10:07:37.373Z,9.65
2019-06-26T10:10:25.245Z,11.80
2019-06-26T10:13:13.069Z,9.88
2019-06-26T10:16:01.298Z,14.47
2019-06-26T10:18:49.459Z,13.28
2019-06-26T10:21:37.918Z,13.83
2019-06-26T10:24:26.463Z,12.55
2019-06-26T10:27:14.840Z,11.60
2019-06-26T10:30:03.532Z,11.45
2019-06-26T10:32:51.703Z,12.65
2019-06-26T10:35:39.982Z,13.43
2019-06-26T10:38:27.865Z,10.00
2019-06-26T10:41:16.191Z,12.03
2019-06-26T10:44:05.216Z,10.35
2019-06-26T10:46:53.229Z,9.63
2019-06-26T10:49:41.850Z,15.05
2019-06-26T10:52:30.047Z,13.58
2019-06-26T10:55:18.257Z,10.98
2019-06-26T10:58:07.027Z,15.15
2019-06-26T11:00:55.583Z,11.28
2019-06-26T11:03:44.321Z,11.65
2019-06-26T11:06:31.983Z,14.38
2019-06-26T11:09:19.866Z,11.53
2019-06-26T11:12:07.707Z,7.35
2019-06-26T11:14:55.911Z,9.68
2019-06-26T11:17:43.861Z,11.60
2019-06-26T11:20:32.273Z,13.55
2019-06-26T11:23:20.438Z,12.98
2019-06-26T11:26:08.477Z,18.20
2019-06-26T11:28:56.059Z,13.50
2019-06-26T11:31:44.159Z,16.23
2019-06-26T11:34:32.613Z,20.27
2019-06-26T11:37:22.907Z,18.25
2019-06-26T11:40:12.004Z,14.65
2019-06-26T11:43:00.262Z,10.30
2019-06-26T11:45:48.666Z,19.37
2019-06-26T11:48:37.373Z,13.62
2019-06-26T11:51:25.667Z,14.28
2019-06-26T11:54:13.617Z,20.75
2019-06-26T11:57:01.925Z,24.63
2019-06-26T11:59:51.230Z,16.60
2019-06-26T12:02:39.500Z,25.43
2019-06-26T12:05:28.161Z,17.45
2019-06-26T12:08:18.537Z,15.20
2019-06-26T12:11:05.880Z,24.23
2019-06-26T12:13:54.452Z,9.63
2019-06-26T12:16:42.228Z,13.93
2019-06-26T12:19:30.795Z,19.98
2019-06-26T12:22:19.267Z,21.27
2019-06-26T12:25:08.764Z,15.03
2019-06-26T12:27:56.644Z,14.20
2019-06-26T12:30:44.809Z,16.45
2019-06-26T12:33:32.673Z,13.68
2019-06-26T12:36:21.808Z,10.60
2019-06-26T12:39:10.109Z,17.45
2019-06-26T12:41:58.266Z,10.45
2019-06-26T12:44:46.191Z,14.53
2019-06-26T12:47:34.773Z,10.43
2019-06-26T12:50:34.535Z,16.05
2019-06-26T12:53:13.563Z,22.62
2019-06-26T12:56:02.150Z,14.73
2019-06-26T12:58:50.197Z,12.68
2019-06-26T13:01:38.173Z,11.83
2019-06-26T13:04:26.665Z,14.25
2019-06-26T13:07:14.880Z,14.90
2019-06-26T13:10:07.224Z,14.85
2019-06-26T13:12:54.931Z,14.50
2019-06-26T13:15:43.008Z,12.68
2019-06-26T13:18:31.680Z,10.13
2019-06-26T13:21:19.852Z,16.70
2019-06-26T13:24:07.794Z,18.05
2019-06-26T13:26:55.658Z,16.65
2019-06-26T13:29:43.921Z,19.80
2019-06-26T13:32:32.287Z,16.25
2019-06-26T13:35:23.423Z,12.80
2019-06-26T13:38:10.471Z,16.73
2019-06-26T13:41:00.797Z,12.10
2019-06-26T13:43:48.554Z,18.50
2019-06-26T13:46:36.747Z,13.62
2019-06-26T13:49:24.539Z,10.58
2019-06-26T13:52:12.406Z,18.67
2019-06-26T13:55:00.382Z,12.65
2019-06-26T13:57:48.598Z,8.63
2019-06-26T14:00:38.671Z,14.98
2019-06-26T14:03:26.397Z,13.72
2019-06-26T14:06:14.673Z,11.18
2019-06-26T14:09:02.431Z,6.92
2019-06-26T14:11:51.097Z,8.35
2019-06-26T14:14:56.177Z,12.03
2019-06-26T14:17:29.276Z,18.48
2019-06-26T14:20:17.606Z,9.98
2019-06-26T14:23:05.593Z,9.73
2019-06-26T14:25:53.738Z,8.43
2019-06-26T14:28:42.096Z,11.55
2019-06-26T14:31:30.585Z,10.18
2019-06-26T14:34:18.226Z,15.40
2019-06-26T14:37:06.443Z,9.83
2019-06-26T14:39:54.049Z,10.82
2019-06-26T14:42:42.361Z,12.10
2019-06-26T14:45:30.208Z,11.57
2019-06-26T14:48:18.189Z,10.10
2019-06-26T14:51:06.442Z,14.35
2019-06-26T14:53:54.783Z,9.75
2019-06-26T14:56:43.223Z,12.10
2019-06-26T14:59:31.675Z,7.47
2019-06-26T15:02:19.667Z,11.93
2019-06-26T15:05:08.667Z,10.23
2019-06-26T15:07:56.552Z,14.45
2019-06-26T15:10:45.140Z,15.28
2019-06-26T15:13:33.395Z,11.03
2019-06-26T15:16:21.315Z,9.73
2019-06-26T15:19:09.988Z,10.48
2019-06-26T15:21:58.923Z,14.15
2019-06-26T15:24:46.933Z,14.05
2019-06-26T15:27:35.415Z,11.43
2019-06-26T15:30:24.273Z,14.35
2019-06-26T15:33:11.955Z,9.23
2019-06-26T15:35:59.758Z,7.53
2019-06-26T15:39:02.992Z,11.68
2019-06-26T15:41:51.365Z,9.40
2019-06-26T15:44:39.541Z,23.52
2019-06-26T15:47:27.504Z,10.70
2019-06-26T15:50:15.979Z,10.15
2019-06-26T15:53:03.849Z,7.08
2019-06-26T15:55:51.508Z,5.15
2019-06-26T15:58:39.223Z,11.70
2019-06-26T16:01:26.902Z,6.22
2019-06-26T16:04:15.458Z,10.03
2019-06-26T16:07:07.939Z,8.23
2019-06-26T16:09:54.277Z,9.85
2019-06-26T16:12:42.695Z,8.33
2019-06-26T16:15:31.321Z,10.85
2019-06-26T16:18:21.225Z,14.98
2019-06-26T16:21:09.582Z,9.10
2019-06-26T16:23:58.026Z,10.00
2019-06-26T16:26:46.919Z,10.48
2019-06-26T16:29:34.715Z,15.60
2019-06-26T16:32:22.571Z,7.72
2019-06-26T16:35:12.321Z,6.42
2019-06-26T16:37:59.701Z,16.65
2019-06-26T16:40:47.879Z,9.28
2019-06-26T16:43:36.141Z,7.95
2019-06-26T16:46:24.671Z,8.20
2019-06-26T16:49:33.530Z,11.57
2019-06-26T16:52:48.550Z,15.23
2019-06-26T16:55:29.889Z,15.90
2019-06-26T16:58:19.845Z,6.42
2019-06-26T17:01:07.994Z,7.65
2019-06-26T17:03:56.619Z,13.32
2019-06-26T17:06:44.908Z,6.47
2019-06-26T17:09:32.683Z,6.20
2019-06-26T17:12:20.702Z,9.08
2019-06-26T17:15:10.413Z,10.32
2019-06-26T17:17:58.789Z,13.30
2019-06-26T17:20:47.492Z,8.75
2019-06-26T17:23:35.515Z,13.10
2019-06-26T17:26:23.910Z,8.30
2019-06-26T17:29:12.050Z,9.13
2019-06-26T17:32:00.933Z,7.80
2019-06-26T17:34:48.763Z,7.58
2019-06-26T17:37:36.772Z,5.50
2019-06-26T17:40:26.863Z,7.87
2019-06-26T17:43:14.844Z,9.40
2019-06-26T17:46:02.745Z,8.55
2019-06-26T17:48:51.353Z,7.58
2019-06-26T17:51:39.502Z,9.08
2019-06-26T17:54:28.736Z,10.85
2019-06-26T17:57:16.611Z,10.72
2019-06-26T18:00:07.485Z,8.80
2019-06-26T18:02:55.329Z,7.95
2019-06-26T18:05:43.163Z,5.67
2019-06-26T18:08:31.040Z,7.75
2019-06-26T18:11:19.079Z,5.60
2019-06-26T18:14:07.484Z,13.45
2019-06-26T18:16:55.467Z,8.60
2019-06-26T18:19:45.171Z,5.65
2019-06-26T18:22:33.054Z,9.28
2019-06-26T18:25:21.470Z,11.05
2019-06-26T18:28:09.292Z,10.53
2019-06-26T18:30:57.897Z,10.78
2019-06-26T18:33:46.424Z,10.55
2019-06-26T18:36:34.594Z,13.98
2019-06-26T18:39:22.375Z,15.85
2019-06-26T18:42:10.474Z,11.93
2019-06-26T18:44:58.306Z,10.48
2019-06-26T18:47:46.198Z,14.30
2019-06-26T18:50:34.641Z,5.62
2019-06-26T18:53:23.094Z,9.10
2019-06-26T18:56:10.822Z,9.15
2019-06-26T18:58:59.362Z,9.03
2019-06-26T19:01:47.196Z,7.20
2019-06-26T19:04:37.101Z,10.98
2019-06-26T19:07:25.046Z,10.18
2019-06-26T19:10:13.896Z,10.78
2019-06-26T19:13:02.299Z,6.65
2019-06-26T19:15:50.193Z,11.93
2019-06-26T19:18:37.993Z,8.00
2019-06-26T19:21:25.998Z,13.95
2019-06-26T19:24:14.740Z,8.38
2019-06-26T19:27:05.247Z,9.68
2019-06-26T19:29:51.953Z,10.05
2019-06-26T19:32:39.737Z,14.73
2019-06-26T19:35:28.537Z,14.23
2019-06-26T19:38:16.240Z,12.23
2019-06-26T19:41:07.569Z,13.58
2019-06-26T19:43:54.092Z,10.95
2019-06-26T19:46:42.518Z,10.65
2019-06-26T19:49:32.901Z,19.57
2019-06-26T19:52:21.591Z,9.28
2019-06-26T19:55:13.158Z,11.70
2019-06-26T19:58:01.045Z,20.65
2019-06-26T20:00:48.786Z,11.28
2019-06-26T20:03:36.807Z,6.55
2019-06-26T20:06:25.625Z,9.60
2019-06-26T20:09:18.760Z,12.25
2019-06-26T20:12:07.667Z,9.38
2019-06-26T20:14:55.293Z,10.03
2019-06-26T20:17:43.062Z,9.95
2019-06-26T20:20:31.301Z,10.80
2019-06-26T20:23:19.530Z,14.55
2019-06-26T20:26:07.251Z,13.13
2019-06-26T20:28:56.429Z,9.10
2019-06-26T20:31:44.177Z,12.50
2019-06-26T20:34:32.940Z,6.87
2019-06-26T20:37:21.419Z,13.80
2019-06-26T20:40:12.825Z,13.28
2019-06-26T20:43:00.969Z,13.32
2019-06-26T20:45:48.772Z,14.15
2019-06-26T20:48:37.456Z,12.20
2019-06-26T20:51:25.105Z,11.05
2019-06-26T20:54:13.081Z,13.78
2019-06-26T20:57:01.508Z,13.62
2019-06-26T20:59:49.753Z,6.42
2019-06-26T21:02:38.777Z,11.33
2019-06-26T21:05:28.862Z,11.08
2019-06-26T21:08:16.582Z,9.88
2019-06-26T21:11:04.684Z,11.88
2019-06-26T21:13:54.147Z,12.00
2019-06-26T21:16:42.644Z,19.57
2019-06-26T21:19:30.457Z,15.78
2019-06-26T21:22:20.059Z,12.15
2019-06-26T21:25:17.830Z,18.67
2019-06-26T21:27:57.383Z,16.02
2019-06-26T21:30:45.475Z,15.50
2019-06-26T21:33:34.075Z,15.80
2019-06-26T21:36:22.385Z,17.70
2019-06-26T21:39:10.117Z,12.23
2019-06-26T21:41:58.897Z,11.48
2019-06-26T21:44:47.176Z,16.07
2019-06-26T21:47:35.386Z,10.23
2019-06-26T21:50:23.280Z,20.43
2019-06-26T21:53:12.058Z,13.35
2019-06-26T21:56:00.505Z,22.75
2019-06-26T21:58:48.195Z,11.33
2019-06-26T22:01:36.380Z,13.80
2019-06-26T22:04:24.872Z,18.02
2019-06-26T22:07:12.724Z,14.28
2019-06-26T22:10:01.091Z,11.95
2019-06-26T22:12:49.119Z,9.05
2019-06-26T22:15:37.548Z,9.95
2019-06-26T22:18:25.770Z,16.42
2019-06-26T22:21:13.979Z,8.65
2019-06-26T22:24:01.944Z,14.03
2019-06-26T22:26:50.862Z,16.50
2019-06-26T22:29:39.064Z,10.18
2019-06-26T22:32:27.109Z,9.63
2019-06-26T22:35:16.066Z,17.87
2019-06-26T22:38:04.423Z,7.37
2019-06-26T22:40:52.467Z,12.35
2019-06-26T22:43:40.282Z,9.55
2019-06-26T22:46:28.336Z,10.13
2019-06-26T22:49:16.312Z,8.90
2019-06-26T22:52:04.382Z,14.95
2019-06-26T22:54:53.580Z,15.25
2019-06-26T22:57:41.913Z,12.40
2019-06-26T23:00:30.177Z,11.55
2019-06-26T23:03:18.831Z,13.18
2019-06-26T23:06:07.747Z,15.45
2019-06-26T23:08:56.088Z,11.60
2019-06-26T23:11:44.599Z,13.15
2019-06-26T23:14:32.826Z,12.25
2019-06-26T23:17:20.957Z,12.23
2019-06-26T23:20:09.572Z,17.67
2019-06-26T23:22:57.385Z,10.40
2019-06-26T23:25:45.238Z,16.02
2019-06-26T23:28:33.583Z,17.77
2019-06-26T23:31:22.019Z,10.68
2019-06-26T23:34:09.968Z,9.03
2019-06-26T23:36:58.094Z,13.90
2019-06-26T23:39:46.563Z,13.85
2019-06-26T23:42:34.962Z,11.95
2019-06-26T23:45:23.282Z,10.50
2019-06-26T23:48:11.285Z,7.35
2019-06-26T23:50:59.561Z,14.20
2019-06-26T23:53:47.838Z,6.25
2019-06-26T23:56:40.273Z,9.18
2019-06-26T23:59:25.262Z,11.30
